Terminal Aerodrome Forecast
Issued by NWS Wilmington, NC

Home | Current Version | Previous Version | Text Only | Print | Product List | Glossary On
Versions: 1 2 3 4 5 6 7 8 9
000
FTUS42 KILM 290500
TAFLBT
TAF
KLBT 290527Z 2906/3006 00000KT P6SM OVC016
     FM291000 01003KT 2SM -DZ BR OVC004
     FM291400 02006KT 3SM -RA BR OVC006
     FM291800 04006KT 5SM -RA BR BKN008 OVC015
     FM300300 03008KT 3SM BR OVC004=

USA.gov is the U.S. government's official web portal to all federal, state and local government web resources and services.